Sevenpersons, Canada
Current Conditions -  °F | °C
As of 1:00 AM on Friday 31 Oct 2014 (Local Time) from CYXH Reporting Station
Broken Clouds Broken Clouds  
Wind Chill: 46°   Ceiling: 15000
Heat Index: 46°   Visibility: 9mi
Dew Point: 36°   Wind: 3mph
Humidity: 66%   Direction: NA
Pressure: 29.95"   Gusts: NA
Location:  49.87°N, 110.9°W
Report Text: CYXH 310700Z AUTO VRB03KT 9SM BKN150 BKN180 08/02 A2995 RMK SLP158
Loading
Personal Weather Stations






























Interactive Weather Map New forecast layout! Learn more

10-Day Weather Forecast

Advertisements
Track Severe Weather on mobile